createdAt,value
2017-01-25T00:00:12.774Z,16.86
2017-01-25T00:01:11.855Z,16.85
2017-01-25T00:02:14.395Z,16.84
2017-01-25T00:03:11.721Z,16.84
2017-01-25T00:04:13.254Z,16.84
2017-01-25T00:05:12.219Z,16.83
2017-01-25T00:06:12.834Z,16.88
2017-01-25T00:07:12.078Z,16.83
2017-01-25T00:08:11.105Z,16.82
2017-01-25T00:09:12.774Z,16.84
2017-01-25T00:10:12.366Z,16.89
2017-01-25T00:11:12.378Z,16.84
2017-01-25T00:12:13.014Z,16.83
2017-01-25T00:13:12.728Z,16.83
2017-01-25T00:14:12.675Z,16.84
2017-01-25T00:15:12.260Z,16.84
2017-01-25T00:16:12.599Z,16.83
2017-01-25T00:17:11.830Z,16.83
2017-01-25T00:18:14.675Z,16.84
2017-01-25T00:19:12.203Z,16.91
2017-01-25T00:20:12.817Z,17.37
2017-01-25T00:21:12.417Z,16.98
2017-01-25T00:22:12.947Z,17.40
2017-01-25T00:23:12.800Z,17.47
2017-01-25T00:24:11.971Z,17.48
2017-01-25T00:25:12.720Z,17.49
2017-01-25T00:26:13.329Z,17.50
2017-01-25T00:27:12.808Z,17.50
2017-01-25T00:28:12.040Z,17.52
2017-01-25T00:29:12.613Z,17.51
2017-01-25T00:30:12.283Z,16.97
2017-01-25T00:31:12.959Z,16.92
2017-01-25T00:32:12.515Z,16.90
2017-01-25T00:33:13.090Z,16.88
2017-01-25T00:34:12.218Z,16.87
2017-01-25T00:35:12.839Z,16.86
2017-01-25T00:36:09.511Z,16.86
2017-01-25T00:37:12.702Z,16.86
2017-01-25T00:38:12.649Z,16.87
2017-01-25T00:39:12.847Z,16.86
2017-01-25T00:40:12.003Z,16.86
2017-01-25T00:41:12.026Z,16.86
2017-01-25T00:42:12.521Z,16.89
2017-01-25T00:43:11.961Z,17.40
2017-01-25T00:44:13.128Z,17.45
2017-01-25T00:45:13.449Z,16.94
2017-01-25T00:46:13.090Z,16.92
2017-01-25T00:47:12.109Z,16.89
2017-01-25T00:48:12.652Z,16.91
2017-01-25T00:49:11.671Z,17.42
2017-01-25T00:50:11.590Z,17.48
2017-01-25T00:51:13.340Z,17.11
2017-01-25T00:52:10.888Z,16.97
2017-01-25T00:53:12.795Z,16.99
2017-01-25T00:54:11.872Z,16.90
2017-01-25T00:55:11.769Z,16.89
2017-01-25T00:56:11.889Z,16.89
2017-01-25T00:57:12.504Z,16.92
2017-01-25T00:58:12.703Z,16.88
2017-01-25T00:59:12.479Z,16.87
2017-01-25T01:00:14.294Z,16.88
2017-01-25T01:01:17.505Z,16.87
2017-01-25T01:02:13.260Z,16.87
2017-01-25T01:03:13.574Z,16.88
2017-01-25T01:04:11.808Z,16.86
2017-01-25T01:05:11.559Z,16.87
2017-01-25T01:06:12.011Z,16.93
2017-01-25T01:07:15.476Z,16.87
2017-01-25T01:08:12.381Z,16.87
2017-01-25T01:09:13.204Z,16.91
2017-01-25T01:10:15.699Z,16.91
2017-01-25T01:11:13.019Z,16.88
2017-01-25T01:12:13.549Z,16.91
2017-01-25T01:13:14.758Z,16.87
2017-01-25T01:14:12.423Z,16.87
2017-01-25T01:15:13.802Z,16.88
2017-01-25T01:16:15.040Z,16.88
2017-01-25T01:17:13.318Z,16.88
2017-01-25T01:18:13.068Z,16.88
2017-01-25T01:19:13.831Z,16.88
2017-01-25T01:20:14.161Z,16.88
2017-01-25T01:21:12.523Z,16.88
2017-01-25T01:22:14.558Z,16.88
2017-01-25T01:23:11.435Z,16.87
2017-01-25T01:24:12.661Z,17.42
2017-01-25T01:25:13.937Z,17.49
2017-01-25T01:26:12.541Z,17.51
2017-01-25T01:27:12.530Z,17.52
2017-01-25T01:28:14.252Z,17.52
2017-01-25T01:29:12.987Z,17.54
2017-01-25T01:30:12.568Z,17.54
2017-01-25T01:31:12.491Z,17.23
2017-01-25T01:32:15.304Z,17.00
2017-01-25T01:33:15.272Z,16.95
2017-01-25T01:34:12.297Z,16.92
2017-01-25T01:35:12.840Z,16.94
2017-01-25T01:36:10.714Z,17.44
2017-01-25T01:37:14.213Z,17.50
2017-01-25T01:38:12.656Z,17.52
2017-01-25T01:39:12.499Z,17.54
2017-01-25T01:40:12.465Z,17.54
2017-01-25T01:41:13.597Z,17.54
2017-01-25T01:42:11.666Z,17.01
2017-01-25T01:43:11.790Z,16.96
2017-01-25T01:44:12.137Z,16.93
2017-01-25T01:45:12.405Z,16.91
2017-01-25T01:46:14.498Z,16.90
2017-01-25T01:47:12.458Z,16.90
2017-01-25T01:48:16.049Z,16.89
2017-01-25T01:49:12.154Z,16.89
2017-01-25T01:50:14.511Z,16.89
2017-01-25T01:51:13.410Z,16.89
2017-01-25T01:52:12.999Z,16.89
2017-01-25T01:53:12.126Z,16.89
2017-01-25T01:54:15.036Z,16.88
2017-01-25T01:55:12.850Z,16.88
2017-01-25T01:56:13.477Z,16.88
2017-01-25T01:57:12.974Z,16.92
2017-01-25T01:58:12.177Z,17.11
2017-01-25T01:59:13.022Z,16.94
2017-01-25T02:00:12.141Z,16.91
2017-01-25T02:01:12.791Z,16.90
2017-01-25T02:02:14.350Z,16.89
2017-01-25T02:03:13.011Z,16.90
2017-01-25T02:04:12.619Z,17.42
2017-01-25T02:05:12.454Z,17.48
2017-01-25T02:06:13.340Z,16.99
2017-01-25T02:07:13.019Z,17.00
2017-01-25T02:08:12.669Z,17.44
2017-01-25T02:09:12.458Z,17.50
2017-01-25T02:10:14.191Z,17.52
2017-01-25T02:11:13.299Z,17.54
2017-01-25T02:12:12.978Z,17.26
2017-01-25T02:13:13.515Z,16.99
2017-01-25T02:14:12.554Z,16.95
2017-01-25T02:15:13.681Z,16.92
2017-01-25T02:16:11.762Z,16.91
2017-01-25T02:17:14.249Z,16.89
2017-01-25T02:18:12.053Z,16.90
2017-01-25T02:19:12.863Z,16.91
2017-01-25T02:20:13.583Z,16.89
2017-01-25T02:21:12.568Z,16.89
2017-01-25T02:22:12.402Z,16.88
2017-01-25T02:23:12.477Z,16.88
2017-01-25T02:24:12.550Z,16.88
2017-01-25T02:25:12.438Z,16.90
2017-01-25T02:26:12.721Z,16.88
2017-01-25T02:27:12.547Z,16.90
2017-01-25T02:28:14.989Z,16.88
2017-01-25T02:29:12.590Z,16.88
2017-01-25T02:30:25.403Z,16.87
2017-01-25T02:31:12.967Z,17.41
2017-01-25T02:32:13.187Z,17.47
2017-01-25T02:33:12.820Z,17.51
2017-01-25T02:34:13.586Z,17.52
2017-01-25T02:35:11.313Z,17.52
2017-01-25T02:36:13.196Z,17.53
2017-01-25T02:37:13.010Z,17.54
2017-01-25T02:38:10.096Z,17.52
2017-01-25T02:39:12.255Z,17.54
2017-01-25T02:40:12.331Z,17.00
2017-01-25T02:41:10.779Z,16.95
2017-01-25T02:42:12.140Z,16.93
2017-01-25T02:43:12.757Z,16.94
2017-01-25T02:44:13.752Z,16.90
2017-01-25T02:45:13.261Z,16.89
2017-01-25T02:46:13.217Z,16.89
2017-01-25T02:47:12.827Z,16.91
2017-01-25T02:48:12.828Z,16.88
2017-01-25T02:49:12.481Z,16.88
2017-01-25T02:50:13.740Z,16.93
2017-01-25T02:51:12.081Z,16.91
2017-01-25T02:52:13.436Z,16.87
2017-01-25T02:53:13.569Z,16.88
2017-01-25T02:54:13.965Z,16.87
2017-01-25T02:55:10.980Z,16.87
2017-01-25T02:56:11.829Z,16.88
2017-01-25T02:57:12.433Z,16.87
2017-01-25T02:58:12.969Z,16.88
2017-01-25T02:59:13.026Z,16.87
2017-01-25T03:00:13.169Z,16.88
2017-01-25T03:01:12.096Z,16.88
2017-01-25T03:02:12.511Z,16.93
2017-01-25T03:03:13.121Z,16.87
2017-01-25T03:04:12.918Z,16.88
2017-01-25T03:05:12.733Z,16.88
2017-01-25T03:06:11.949Z,16.88
2017-01-25T03:07:10.212Z,16.87
2017-01-25T03:08:13.460Z,16.87
2017-01-25T03:09:12.464Z,16.87
2017-01-25T03:10:13.101Z,16.91
2017-01-25T03:11:13.679Z,17.41
2017-01-25T03:12:11.713Z,17.45
2017-01-25T03:13:12.479Z,17.50
2017-01-25T03:14:13.246Z,17.51
2017-01-25T03:15:13.859Z,16.98
2017-01-25T03:16:13.621Z,16.93
2017-01-25T03:17:13.403Z,16.91
2017-01-25T03:18:13.151Z,16.90
2017-01-25T03:19:12.309Z,16.89
2017-01-25T03:20:12.484Z,16.88
2017-01-25T03:21:12.660Z,16.88
2017-01-25T03:22:11.722Z,16.88
2017-01-25T03:23:09.868Z,16.87
2017-01-25T03:24:12.636Z,16.95
2017-01-25T03:25:11.703Z,16.88
2017-01-25T03:26:12.046Z,16.87
2017-01-25T03:27:13.230Z,16.88
2017-01-25T03:28:12.993Z,16.88
2017-01-25T03:29:12.091Z,16.88
2017-01-25T03:30:12.919Z,16.88
2017-01-25T03:31:14.511Z,16.87
2017-01-25T03:32:13.146Z,16.87
2017-01-25T03:33:13.695Z,16.90
2017-01-25T03:34:12.276Z,17.04
2017-01-25T03:35:12.287Z,16.93
2017-01-25T03:36:13.947Z,16.89
2017-01-25T03:37:12.909Z,16.94
2017-01-25T03:38:13.004Z,16.89
2017-01-25T03:39:12.631Z,16.88
2017-01-25T03:40:11.748Z,16.88
2017-01-25T03:41:13.403Z,16.88
2017-01-25T03:42:14.152Z,16.88
2017-01-25T03:43:12.264Z,16.88
2017-01-25T03:44:14.204Z,16.87
2017-01-25T03:45:13.916Z,16.88
2017-01-25T03:46:11.937Z,16.88
2017-01-25T03:47:13.220Z,16.88
2017-01-25T03:48:12.913Z,16.88
2017-01-25T03:49:13.259Z,16.88
2017-01-25T03:50:13.414Z,16.87
2017-01-25T03:51:12.408Z,16.88
2017-01-25T03:52:12.992Z,16.87
2017-01-25T03:53:12.107Z,16.87
2017-01-25T03:54:13.327Z,16.88
2017-01-25T03:55:12.277Z,16.88
2017-01-25T03:56:12.663Z,16.94
2017-01-25T03:57:12.360Z,16.88
2017-01-25T03:58:12.339Z,16.88
2017-01-25T03:59:12.459Z,16.88
2017-01-25T04:00:13.247Z,16.87
2017-01-25T04:01:12.184Z,16.88
2017-01-25T04:02:13.008Z,16.92
2017-01-25T04:03:12.591Z,16.88
2017-01-25T04:04:12.236Z,16.91
2017-01-25T04:05:12.464Z,16.87
2017-01-25T04:06:13.485Z,16.87
2017-01-25T04:07:12.988Z,16.94
2017-01-25T04:08:12.570Z,16.88
2017-01-25T04:09:13.230Z,16.88
2017-01-25T04:10:13.930Z,16.89
2017-01-25T04:11:11.116Z,16.87
2017-01-25T04:12:11.918Z,16.88
2017-01-25T04:13:12.014Z,16.88
2017-01-25T04:14:12.786Z,16.87
2017-01-25T04:15:11.955Z,16.88
2017-01-25T04:16:12.598Z,16.89
2017-01-25T04:17:11.732Z,16.88
2017-01-25T04:18:12.885Z,16.87
2017-01-25T04:19:12.711Z,16.87
2017-01-25T04:20:12.382Z,16.95
2017-01-25T04:21:12.969Z,16.94
2017-01-25T04:22:11.908Z,16.88
2017-01-25T04:23:12.488Z,16.87
2017-01-25T04:24:12.468Z,16.87
2017-01-25T04:25:12.488Z,16.87
2017-01-25T04:26:12.483Z,16.87
2017-01-25T04:27:12.689Z,16.88
2017-01-25T04:28:11.720Z,16.87
2017-01-25T04:29:12.306Z,16.88
2017-01-25T04:30:11.823Z,16.87
2017-01-25T04:31:13.391Z,16.87
2017-01-25T04:32:12.578Z,16.87
2017-01-25T04:33:10.822Z,16.87
2017-01-25T04:34:12.268Z,17.40
2017-01-25T04:35:12.866Z,16.94
2017-01-25T04:36:13.456Z,16.90
2017-01-25T04:37:13.165Z,16.94
2017-01-25T04:38:11.114Z,16.87
2017-01-25T04:39:13.086Z,16.89
2017-01-25T04:40:13.768Z,16.88
2017-01-25T04:41:12.556Z,16.88
2017-01-25T04:42:12.588Z,16.87
2017-01-25T04:43:12.127Z,16.88
2017-01-25T04:44:13.144Z,16.88
2017-01-25T04:45:12.866Z,16.87
2017-01-25T04:46:12.784Z,16.89
2017-01-25T04:47:12.863Z,16.87
2017-01-25T04:48:12.577Z,16.87
2017-01-25T04:49:11.663Z,16.87
2017-01-25T04:50:12.867Z,17.42
2017-01-25T04:51:11.902Z,17.48
2017-01-25T04:52:13.589Z,17.51
2017-01-25T04:53:13.402Z,17.51
2017-01-25T04:54:13.835Z,17.52
2017-01-25T04:55:12.607Z,17.53
2017-01-25T04:56:12.815Z,16.99
2017-01-25T04:57:13.457Z,17.01
2017-01-25T04:58:12.568Z,16.91
2017-01-25T04:59:10.056Z,16.89
2017-01-25T05:00:14.473Z,16.88
2017-01-25T05:01:11.018Z,16.88
2017-01-25T05:02:13.846Z,16.93
2017-01-25T05:03:11.957Z,16.88
2017-01-25T05:04:13.770Z,16.87
2017-01-25T05:05:12.885Z,16.87
2017-01-25T05:06:11.924Z,16.87
2017-01-25T05:07:12.606Z,16.93
2017-01-25T05:08:12.469Z,16.88
2017-01-25T05:09:14.197Z,16.87
2017-01-25T05:10:12.070Z,16.87
2017-01-25T05:11:10.797Z,16.87
2017-01-25T05:12:10.550Z,16.87
2017-01-25T05:13:11.923Z,16.87
2017-01-25T05:14:12.541Z,16.92
2017-01-25T05:15:13.600Z,16.88
2017-01-25T05:16:13.229Z,16.86
2017-01-25T05:17:13.063Z,16.87
2017-01-25T05:18:13.071Z,16.87
2017-01-25T05:19:12.761Z,16.91
2017-01-25T05:20:14.309Z,16.87
2017-01-25T05:21:12.216Z,16.86
2017-01-25T05:22:12.348Z,16.87
2017-01-25T05:23:12.377Z,16.87
2017-01-25T05:24:13.874Z,16.86
2017-01-25T05:25:13.870Z,16.91
2017-01-25T05:26:13.927Z,16.87
2017-01-25T05:27:11.960Z,16.87
2017-01-25T05:28:13.101Z,16.88
2017-01-25T05:29:12.653Z,16.96
2017-01-25T05:30:13.641Z,17.41
2017-01-25T05:31:12.597Z,16.94
2017-01-25T05:32:12.215Z,16.90
2017-01-25T05:33:12.439Z,16.89
2017-01-25T05:34:12.936Z,16.91
2017-01-25T05:35:12.481Z,17.10
2017-01-25T05:36:12.496Z,17.47
2017-01-25T05:37:12.816Z,17.51
2017-01-25T05:38:11.789Z,17.51
2017-01-25T05:39:11.974Z,17.52
2017-01-25T05:40:13.941Z,17.17
2017-01-25T05:41:12.429Z,17.03
2017-01-25T05:42:13.250Z,16.94
2017-01-25T05:43:12.200Z,16.91
2017-01-25T05:44:13.130Z,16.90
2017-01-25T05:45:12.878Z,16.89
2017-01-25T05:46:12.532Z,16.93
2017-01-25T05:47:13.053Z,16.89
2017-01-25T05:48:12.777Z,16.88
2017-01-25T05:49:12.327Z,16.87
2017-01-25T05:50:12.105Z,16.87
2017-01-25T05:51:12.120Z,16.87
2017-01-25T05:52:12.283Z,16.87
2017-01-25T05:53:13.701Z,16.87
2017-01-25T05:54:12.269Z,16.89
2017-01-25T05:55:14.179Z,16.86
2017-01-25T05:56:12.908Z,16.86
2017-01-25T05:57:12.632Z,16.86
2017-01-25T05:58:13.384Z,16.91
2017-01-25T05:59:13.148Z,16.94
2017-01-25T06:00:12.765Z,16.86
2017-01-25T06:01:11.970Z,16.86
2017-01-25T06:02:10.532Z,16.86
2017-01-25T06:03:12.596Z,16.86
2017-01-25T06:04:13.357Z,16.86
2017-01-25T06:05:09.579Z,16.86
2017-01-25T06:06:13.244Z,16.85
2017-01-25T06:07:13.779Z,16.85
2017-01-25T06:08:12.799Z,16.86
2017-01-25T06:09:12.637Z,16.85
2017-01-25T06:10:11.691Z,16.86
2017-01-25T06:11:10.740Z,16.85
2017-01-25T06:12:12.510Z,16.86
2017-01-25T06:13:12.639Z,16.86
2017-01-25T06:14:12.651Z,16.86
2017-01-25T06:15:12.230Z,16.86
2017-01-25T06:16:12.229Z,16.86
2017-01-25T06:17:12.881Z,16.86
2017-01-25T06:18:11.797Z,16.85
2017-01-25T06:19:11.917Z,16.86
2017-01-25T06:20:12.035Z,16.85
2017-01-25T06:21:12.129Z,16.86
2017-01-25T06:22:13.604Z,16.86
2017-01-25T06:23:12.400Z,16.86
2017-01-25T06:24:12.399Z,16.86
2017-01-25T06:25:13.440Z,16.86
2017-01-25T06:26:13.270Z,16.85
2017-01-25T06:27:12.757Z,16.93
2017-01-25T06:28:12.069Z,16.89
2017-01-25T06:29:10.745Z,16.85
2017-01-25T06:30:12.702Z,16.86
2017-01-25T06:31:12.492Z,16.86
2017-01-25T06:32:12.492Z,16.86
2017-01-25T06:33:13.609Z,16.86
2017-01-25T06:34:11.821Z,16.86
2017-01-25T06:35:13.518Z,16.89
2017-01-25T06:36:13.367Z,16.86
2017-01-25T06:37:13.151Z,16.86
2017-01-25T06:38:13.657Z,16.86
2017-01-25T06:39:12.510Z,16.86
2017-01-25T06:40:13.688Z,16.86
2017-01-25T06:41:12.181Z,16.89
2017-01-25T06:42:12.799Z,16.86
2017-01-25T06:43:12.712Z,16.86
2017-01-25T06:44:12.879Z,17.40
2017-01-25T06:45:15.963Z,17.47
2017-01-25T06:46:12.956Z,16.96
2017-01-25T06:47:12.758Z,17.44
2017-01-25T06:48:10.602Z,17.49
2017-01-25T06:49:13.293Z,16.95
2017-01-25T06:50:13.124Z,16.92
2017-01-25T06:51:12.223Z,16.89
2017-01-25T06:52:13.151Z,16.91
2017-01-25T06:53:12.896Z,16.88
2017-01-25T06:54:11.966Z,16.88
2017-01-25T06:55:12.051Z,16.87
2017-01-25T06:56:13.746Z,16.87
2017-01-25T06:57:12.428Z,16.93
2017-01-25T06:58:12.486Z,16.87
2017-01-25T06:59:13.177Z,16.90
2017-01-25T07:00:12.258Z,17.42
2017-01-25T07:01:12.761Z,17.46
2017-01-25T07:02:11.968Z,17.50
2017-01-25T07:03:12.492Z,17.27
2017-01-25T07:04:14.597Z,16.98
2017-01-25T07:05:11.695Z,16.94
2017-01-25T07:06:11.760Z,16.91
2017-01-25T07:07:12.539Z,16.89
2017-01-25T07:08:10.572Z,16.88
2017-01-25T07:09:12.135Z,16.87
2017-01-25T07:10:12.333Z,16.89
2017-01-25T07:11:12.324Z,16.88
2017-01-25T07:12:12.379Z,16.88
2017-01-25T07:13:12.468Z,16.88
2017-01-25T07:14:13.381Z,16.87
2017-01-25T07:15:14.218Z,16.88
2017-01-25T07:16:12.316Z,16.89
2017-01-25T07:17:13.703Z,16.89
2017-01-25T07:18:13.446Z,16.88
2017-01-25T07:19:12.534Z,16.88
2017-01-25T07:20:14.881Z,16.88
2017-01-25T07:21:12.281Z,16.95
2017-01-25T07:22:12.975Z,16.89
2017-01-25T07:23:12.592Z,16.89
2017-01-25T07:24:13.495Z,16.88
2017-01-25T07:25:13.358Z,16.89
2017-01-25T07:26:12.940Z,16.89
2017-01-25T07:27:10.647Z,16.89
2017-01-25T07:28:11.945Z,16.89
2017-01-25T07:29:13.169Z,16.88
2017-01-25T07:30:13.898Z,16.89
2017-01-25T07:31:11.881Z,16.89
2017-01-25T07:32:13.307Z,16.88
2017-01-25T07:33:12.157Z,16.89
2017-01-25T07:34:14.860Z,16.88
2017-01-25T07:35:12.050Z,16.84
2017-01-25T07:36:12.259Z,15.27
2017-01-25T07:37:12.422Z,13.09
2017-01-25T07:38:12.461Z,11.87
2017-01-25T07:39:12.541Z,10.90
2017-01-25T07:40:12.674Z,10.11
2017-01-25T07:41:12.351Z,9.31
2017-01-25T07:42:11.238Z,8.84
2017-01-25T07:43:12.249Z,9.25
2017-01-25T07:44:12.339Z,10.41
2017-01-25T07:45:13.219Z,11.46
2017-01-25T07:46:12.336Z,12.23
2017-01-25T07:47:13.905Z,12.86
2017-01-25T07:48:11.940Z,13.35
2017-01-25T07:49:11.978Z,13.77
2017-01-25T07:50:12.530Z,14.12
2017-01-25T07:51:13.232Z,15.00
2017-01-25T07:52:12.426Z,15.25
2017-01-25T07:53:13.321Z,14.90
2017-01-25T07:54:12.709Z,15.09
2017-01-25T07:55:12.965Z,15.17
2017-01-25T07:56:12.524Z,15.28
2017-01-25T07:57:15.121Z,15.34
2017-01-25T07:58:12.699Z,15.42
2017-01-25T07:59:12.378Z,15.55
2017-01-25T08:00:10.981Z,15.61
2017-01-25T08:01:12.957Z,15.71
2017-01-25T08:02:12.580Z,15.78
2017-01-25T08:03:12.268Z,15.82
2017-01-25T08:04:12.394Z,15.84
2017-01-25T08:05:12.533Z,15.84
2017-01-25T08:06:12.501Z,15.85
2017-01-25T08:07:13.300Z,15.88
2017-01-25T08:08:13.050Z,15.89
2017-01-25T08:09:10.802Z,15.91
2017-01-25T08:10:10.540Z,16.46
2017-01-25T08:11:12.634Z,16.55
2017-01-25T08:12:12.308Z,16.07
2017-01-25T08:13:13.696Z,16.05
2017-01-25T08:14:12.217Z,16.05
2017-01-25T08:15:12.342Z,16.06
2017-01-25T08:16:12.997Z,16.07
2017-01-25T08:17:12.698Z,16.12
2017-01-25T08:18:12.487Z,16.30
2017-01-25T08:19:13.113Z,16.19
2017-01-25T08:20:12.061Z,16.15
2017-01-25T08:21:12.684Z,16.15
2017-01-25T08:22:12.243Z,16.23
2017-01-25T08:23:12.797Z,16.25
2017-01-25T08:24:11.755Z,16.18
2017-01-25T08:25:12.307Z,16.24
2017-01-25T08:26:11.060Z,16.19
2017-01-25T08:27:12.716Z,16.20
2017-01-25T08:28:12.411Z,16.21
2017-01-25T08:29:12.920Z,16.24
2017-01-25T08:30:11.944Z,16.23
2017-01-25T08:31:10.872Z,16.23
2017-01-25T08:32:12.497Z,16.25
2017-01-25T08:33:12.641Z,16.25
2017-01-25T08:34:11.659Z,16.26
2017-01-25T08:35:11.516Z,16.26
2017-01-25T08:36:12.581Z,16.26
2017-01-25T08:37:11.637Z,16.27
2017-01-25T08:38:12.258Z,16.29
2017-01-25T08:39:12.945Z,16.29
2017-01-25T08:40:12.609Z,16.36
2017-01-25T08:41:11.692Z,16.29
2017-01-25T08:42:12.258Z,16.34
2017-01-25T08:43:12.193Z,16.30
2017-01-25T08:44:12.708Z,16.31
2017-01-25T08:45:12.485Z,16.31
2017-01-25T08:46:12.527Z,16.32
2017-01-25T08:47:13.101Z,16.31
2017-01-25T08:48:12.128Z,16.32
2017-01-25T08:49:12.597Z,16.35
2017-01-25T08:50:12.246Z,16.85
2017-01-25T08:51:12.421Z,16.39
2017-01-25T08:52:11.393Z,16.35
2017-01-25T08:53:15.875Z,16.88
2017-01-25T08:54:12.022Z,16.93
2017-01-25T08:55:13.260Z,16.64
2017-01-25T08:56:12.345Z,16.44
2017-01-25T08:57:13.000Z,16.40
2017-01-25T08:58:12.087Z,16.37
2017-01-25T08:59:12.761Z,16.37
2017-01-25T09:00:12.318Z,16.36
2017-01-25T09:01:12.851Z,16.36
2017-01-25T09:02:12.036Z,16.37
2017-01-25T09:03:13.006Z,16.35
2017-01-25T09:04:12.795Z,16.37
2017-01-25T09:05:13.684Z,16.36
2017-01-25T09:06:12.415Z,16.36
2017-01-25T09:07:13.578Z,16.36
2017-01-25T09:08:12.679Z,16.36
2017-01-25T09:09:10.471Z,16.36
2017-01-25T09:10:12.185Z,16.88
2017-01-25T09:11:12.258Z,16.93
2017-01-25T09:12:12.630Z,16.96
2017-01-25T09:13:11.844Z,16.98
2017-01-25T09:14:13.435Z,16.86
2017-01-25T09:15:14.476Z,16.47
2017-01-25T09:16:12.457Z,16.41
2017-01-25T09:17:12.674Z,16.40
2017-01-25T09:18:11.688Z,16.39
2017-01-25T09:19:11.738Z,16.38
2017-01-25T09:20:12.367Z,16.38
2017-01-25T09:21:12.564Z,16.38
2017-01-25T09:22:12.402Z,16.38
2017-01-25T09:23:11.169Z,16.37
2017-01-25T09:24:13.174Z,16.38
2017-01-25T09:25:12.682Z,16.44
2017-01-25T09:26:13.245Z,16.37
2017-01-25T09:27:12.945Z,16.37
2017-01-25T09:28:10.767Z,16.90
2017-01-25T09:29:12.818Z,16.93
2017-01-25T09:30:13.617Z,16.98
2017-01-25T09:31:12.148Z,16.99
2017-01-25T09:32:12.174Z,17.00
2017-01-25T09:33:12.138Z,16.49
2017-01-25T09:34:12.143Z,16.43
2017-01-25T09:35:12.882Z,16.41
2017-01-25T09:36:13.759Z,16.39
2017-01-25T09:37:12.853Z,16.46
2017-01-25T09:38:12.465Z,16.38
2017-01-25T09:39:14.448Z,16.38
2017-01-25T09:40:13.356Z,16.39
2017-01-25T09:41:13.219Z,16.39
2017-01-25T09:42:12.706Z,16.43
2017-01-25T09:43:13.384Z,16.37
2017-01-25T09:44:12.854Z,16.38
2017-01-25T09:45:11.852Z,16.38
2017-01-25T09:46:11.931Z,16.38
2017-01-25T09:47:13.376Z,16.45
2017-01-25T09:48:12.894Z,16.91
2017-01-25T09:49:12.666Z,16.95
2017-01-25T09:50:12.885Z,16.46
2017-01-25T09:51:11.978Z,16.41
2017-01-25T09:52:12.479Z,16.46
2017-01-25T09:53:11.039Z,16.39
2017-01-25T09:54:13.340Z,16.39
2017-01-25T09:55:15.037Z,16.38
2017-01-25T09:56:13.634Z,16.39
2017-01-25T09:57:12.167Z,16.39
2017-01-25T09:58:13.330Z,16.40
2017-01-25T09:59:12.782Z,16.91
2017-01-25T10:00:11.940Z,16.43
2017-01-25T10:01:12.739Z,16.41
2017-01-25T10:02:11.847Z,16.39
2017-01-25T10:03:12.004Z,16.38
2017-01-25T10:04:12.489Z,16.38
2017-01-25T10:05:12.217Z,16.38
2017-01-25T10:06:12.187Z,16.38
2017-01-25T10:07:12.502Z,16.38
2017-01-25T10:08:15.391Z,16.38
2017-01-25T10:09:10.564Z,16.38
2017-01-25T10:10:12.604Z,16.37
2017-01-25T10:11:11.721Z,16.38
2017-01-25T10:12:11.918Z,16.38
2017-01-25T10:13:12.091Z,16.38
2017-01-25T10:14:12.948Z,16.40
2017-01-25T10:15:11.916Z,16.38
2017-01-25T10:16:11.985Z,16.38
2017-01-25T10:17:12.048Z,16.39
2017-01-25T10:18:12.515Z,16.44
2017-01-25T10:19:12.541Z,16.38
2017-01-25T10:20:13.534Z,16.38
2017-01-25T10:21:12.507Z,16.39
2017-01-25T10:22:13.388Z,16.40
2017-01-25T10:23:12.398Z,16.38
2017-01-25T10:24:12.383Z,16.39
2017-01-25T10:25:12.901Z,16.46
2017-01-25T10:26:11.958Z,16.91
2017-01-25T10:27:13.742Z,16.97
2017-01-25T10:28:11.807Z,16.99
2017-01-25T10:29:11.883Z,17.00
2017-01-25T10:30:13.562Z,17.02
2017-01-25T10:31:13.433Z,17.01
2017-01-25T10:32:12.546Z,17.01
2017-01-25T10:33:13.635Z,17.01
2017-01-25T10:34:13.099Z,16.50
2017-01-25T10:35:12.752Z,16.44
2017-01-25T10:36:12.454Z,16.44
2017-01-25T10:37:13.094Z,16.41
2017-01-25T10:38:12.149Z,16.40
2017-01-25T10:39:12.015Z,16.39
2017-01-25T10:40:12.663Z,16.39
2017-01-25T10:41:11.719Z,16.40
2017-01-25T10:42:12.297Z,16.40
2017-01-25T10:43:12.745Z,16.39
2017-01-25T10:44:10.461Z,16.39
2017-01-25T10:45:11.896Z,16.40
2017-01-25T10:46:10.678Z,16.39
2017-01-25T10:47:12.214Z,16.40
2017-01-25T10:48:12.699Z,16.39
2017-01-25T10:49:12.330Z,16.44
2017-01-25T10:50:13.857Z,16.40
2017-01-25T10:51:11.866Z,16.40
2017-01-25T10:52:14.626Z,16.40
2017-01-25T10:53:13.061Z,16.40
2017-01-25T10:54:12.887Z,16.40
2017-01-25T10:55:13.297Z,16.39
2017-01-25T10:56:13.182Z,16.40
2017-01-25T10:57:12.605Z,16.40
2017-01-25T10:58:11.730Z,16.39
2017-01-25T10:59:12.376Z,16.40
2017-01-25T11:00:13.968Z,16.40
2017-01-25T11:01:12.571Z,16.46
2017-01-25T11:02:14.355Z,16.40
2017-01-25T11:03:12.667Z,16.40
2017-01-25T11:04:11.705Z,16.41
2017-01-25T11:05:11.873Z,16.41
2017-01-25T11:06:12.273Z,16.44
2017-01-25T11:07:13.298Z,16.41
2017-01-25T11:08:13.066Z,16.41
2017-01-25T11:09:12.040Z,16.42
2017-01-25T11:10:12.547Z,16.42
2017-01-25T11:11:12.437Z,16.42
2017-01-25T11:12:12.930Z,16.41
2017-01-25T11:13:12.542Z,16.48
2017-01-25T11:14:12.985Z,16.46
2017-01-25T11:15:13.187Z,16.41
2017-01-25T11:16:12.234Z,16.42
2017-01-25T11:17:12.548Z,16.42
2017-01-25T11:18:14.178Z,16.41
2017-01-25T11:19:10.937Z,16.41
2017-01-25T11:20:12.883Z,16.44
2017-01-25T11:21:12.497Z,16.41
2017-01-25T11:22:12.927Z,16.44
2017-01-25T11:23:12.047Z,16.94
2017-01-25T11:24:12.988Z,16.99
2017-01-25T11:25:12.586Z,17.01
2017-01-25T11:26:14.193Z,17.03
2017-01-25T11:27:12.793Z,17.03
2017-01-25T11:28:11.864Z,16.52
2017-01-25T11:29:13.534Z,16.47
2017-01-25T11:30:13.256Z,16.45
2017-01-25T11:31:13.186Z,16.44
2017-01-25T11:32:12.157Z,16.44
2017-01-25T11:33:10.238Z,16.43
2017-01-25T11:34:12.319Z,16.43
2017-01-25T11:35:12.971Z,16.45
2017-01-25T11:36:12.095Z,16.43
2017-01-25T11:37:12.352Z,16.43
2017-01-25T11:38:12.425Z,16.43
2017-01-25T11:39:14.411Z,16.43
2017-01-25T11:40:10.680Z,16.43
2017-01-25T11:41:13.324Z,16.43
2017-01-25T11:42:13.150Z,16.44
2017-01-25T11:43:12.204Z,16.43
2017-01-25T11:44:12.753Z,16.43
2017-01-25T11:45:13.274Z,16.95
2017-01-25T11:46:13.004Z,17.00
2017-01-25T11:47:12.979Z,17.03
2017-01-25T11:48:11.939Z,16.52
2017-01-25T11:49:12.566Z,16.54
2017-01-25T11:50:13.381Z,16.46
2017-01-25T11:51:13.028Z,16.45
2017-01-25T11:52:12.663Z,16.44
2017-01-25T11:53:15.799Z,16.43
2017-01-25T11:54:12.687Z,16.44
2017-01-25T11:55:12.237Z,16.43
2017-01-25T11:56:12.865Z,16.44
2017-01-25T11:57:12.087Z,16.43
2017-01-25T11:58:13.476Z,16.46
2017-01-25T11:59:13.153Z,16.46
2017-01-25T12:00:14.126Z,16.95
2017-01-25T12:01:15.223Z,17.02
2017-01-25T12:02:12.409Z,17.04
2017-01-25T12:03:13.148Z,17.05
2017-01-25T12:04:12.205Z,17.06
2017-01-25T12:05:12.665Z,16.58
2017-01-25T12:06:10.518Z,16.48
2017-01-25T12:07:12.045Z,16.46
2017-01-25T12:08:12.298Z,16.45
2017-01-25T12:09:12.939Z,16.47
2017-01-25T12:10:12.076Z,16.97
2017-01-25T12:11:12.107Z,17.00
2017-01-25T12:12:12.274Z,17.04
2017-01-25T12:13:12.376Z,17.05
2017-01-25T12:14:12.491Z,17.05
2017-01-25T12:15:13.030Z,16.61
2017-01-25T12:16:12.095Z,16.48
2017-01-25T12:17:12.716Z,16.46
2017-01-25T12:18:12.378Z,16.45
2017-01-25T12:19:13.046Z,16.44
2017-01-25T12:20:12.586Z,16.48
2017-01-25T12:21:11.660Z,16.44
2017-01-25T12:22:12.294Z,16.43
2017-01-25T12:23:13.230Z,16.42
2017-01-25T12:24:12.399Z,16.43
2017-01-25T12:25:13.625Z,16.44
2017-01-25T12:26:13.209Z,16.42
2017-01-25T12:27:10.274Z,16.43
2017-01-25T12:28:13.052Z,16.43
2017-01-25T12:29:12.179Z,16.43
2017-01-25T12:30:12.326Z,16.43
2017-01-25T12:31:12.396Z,16.44
2017-01-25T12:32:12.835Z,16.43
2017-01-25T12:33:11.954Z,16.43
2017-01-25T12:34:13.600Z,16.43
2017-01-25T12:35:12.513Z,16.44
2017-01-25T12:36:13.523Z,16.46
2017-01-25T12:37:13.250Z,16.43
2017-01-25T12:38:12.346Z,16.43
2017-01-25T12:39:13.105Z,16.43
2017-01-25T12:40:14.726Z,16.43
2017-01-25T12:41:11.857Z,16.44
2017-01-25T12:42:11.889Z,16.44
2017-01-25T12:43:12.461Z,16.44
2017-01-25T12:44:12.599Z,16.44
2017-01-25T12:45:11.758Z,16.44
2017-01-25T12:46:13.385Z,16.43
2017-01-25T12:47:12.241Z,16.43
2017-01-25T12:48:12.767Z,16.44
2017-01-25T12:49:13.414Z,16.44
2017-01-25T12:50:12.426Z,16.44
2017-01-25T12:51:13.927Z,16.44
2017-01-25T12:52:12.083Z,16.44